createdAt,value
2023-02-11T00:01:27.952Z,31.23
2023-02-11T00:03:59.080Z,27.50
2023-02-11T00:06:29.943Z,27.77
2023-02-11T00:09:00.551Z,24.83
2023-02-11T00:11:30.873Z,26.47
2023-02-11T00:14:06.357Z,23.97
2023-02-11T00:16:33.709Z,29.13
2023-02-11T00:19:01.589Z,30.50
2023-02-11T00:21:29.194Z,40.27
2023-02-11T00:24:00.166Z,27.47
2023-02-11T00:26:35.066Z,27.80
2023-02-11T00:29:02.703Z,25.43
2023-02-11T00:31:33.331Z,26.87
2023-02-11T00:34:03.789Z,32.17
2023-02-11T00:36:31.416Z,32.27
2023-02-11T00:39:01.704Z,31.97
2023-02-11T00:41:29.157Z,30.23
2023-02-11T00:43:56.263Z,34.97
2023-02-11T00:46:23.549Z,28.93
2023-02-11T00:48:52.095Z,34.80
2023-02-11T00:51:19.382Z,37.50
2023-02-11T00:53:46.819Z,33.10
2023-02-11T00:56:14.259Z,31.60
2023-02-11T00:58:41.703Z,31.70
2023-02-11T01:01:09.194Z,28.30
2023-02-11T01:03:36.383Z,30.93
2023-02-11T01:06:04.808Z,29.97
2023-02-11T01:08:33.698Z,34.20
2023-02-11T01:11:06.608Z,34.90
2023-02-11T01:13:35.174Z,30.47
2023-02-11T01:16:02.412Z,33.90
2023-02-11T01:18:30.138Z,32.30
2023-02-11T01:20:57.348Z,30.10
2023-02-11T01:23:24.877Z,27.73
2023-02-11T01:25:52.476Z,28.93
2023-02-11T01:28:21.557Z,37.03
2023-02-11T01:30:49.172Z,31.87
2023-02-11T01:33:16.635Z,28.30
2023-02-11T01:35:44.355Z,26.10
2023-02-11T01:38:23.170Z,27.53
2023-02-11T01:41:01.441Z,26.70
2023-02-11T01:43:31.198Z,25.03
2023-02-11T01:46:00.023Z,30.93
2023-02-11T01:48:42.009Z,28.40
2023-02-11T01:51:25.194Z,35.03
2023-02-11T01:54:11.114Z,38.93
2023-02-11T01:56:58.869Z,31.23
2023-02-11T01:59:32.788Z,29.23
2023-02-11T02:02:04.059Z,29.07
2023-02-11T02:04:33.746Z,30.67
2023-02-11T02:07:04.630Z,36.33
2023-02-11T02:09:34.428Z,31.63
2023-02-11T02:12:02.553Z,32.63
2023-02-11T02:14:29.925Z,32.20
2023-02-11T02:16:57.078Z,28.67
2023-02-11T02:19:58.559Z,28.03
2023-02-11T02:22:53.413Z,26.77
2023-02-11T02:25:39.741Z,39.25
2023-02-11T02:28:31.042Z,35.93
2023-02-11T02:31:25.749Z,29.93
2023-02-11T02:34:16.874Z,34.70
2023-02-11T02:37:15.926Z,30.67
2023-02-11T02:39:43.355Z,31.43
2023-02-11T02:42:10.705Z,27.33
2023-02-11T02:44:38.257Z,30.80
2023-02-11T02:47:05.913Z,26.90
2023-02-11T02:49:33.228Z,31.50
2023-02-11T02:52:18.320Z,31.57
2023-02-11T02:54:48.414Z,36.13
2023-02-11T02:57:52.759Z,30.90
2023-02-11T03:00:38.398Z,37.40
2023-02-11T03:03:27.195Z,32.10
2023-02-11T03:06:08.704Z,31.63
2023-02-11T03:08:40.483Z,37.03
2023-02-11T03:11:07.957Z,35.50
2023-02-11T03:13:36.336Z,31.43
2023-02-11T03:16:27.485Z,36.93
2023-02-11T03:19:01.708Z,33.87
2023-02-11T03:21:29.592Z,40.67
2023-02-11T03:24:03.302Z,43.43
2023-02-11T03:26:31.411Z,33.20
2023-02-11T03:29:06.651Z,37.30
2023-02-11T03:31:57.067Z,34.57
2023-02-11T03:34:34.178Z,34.23
2023-02-11T03:37:02.833Z,34.03
2023-02-11T03:39:40.140Z,38.67
2023-02-11T03:42:08.131Z,44.20
2023-02-11T03:44:45.112Z,38.93
2023-02-11T03:47:13.057Z,35.40
2023-02-11T03:49:40.450Z,36.13
2023-02-11T03:52:08.029Z,36.50
2023-02-11T03:54:35.207Z,29.67
2023-02-11T03:57:02.814Z,33.77
2023-02-11T03:59:30.260Z,38.33
2023-02-11T04:01:59.873Z,33.07
2023-02-11T04:04:27.335Z,30.83
2023-02-11T04:06:54.526Z,38.17
2023-02-11T04:09:22.029Z,31.03
2023-02-11T04:11:49.211Z,40.60
2023-02-11T04:14:16.630Z,34.50
2023-02-11T04:16:44.302Z,49.20
2023-02-11T04:19:11.913Z,41.10
2023-02-11T04:21:39.665Z,39.47
2023-02-11T04:24:06.870Z,47.30
2023-02-11T04:26:34.437Z,44.13
2023-02-11T04:29:02.162Z,45.03
2023-02-11T04:31:29.941Z,46.87
2023-02-11T04:33:57.196Z,44.33
2023-02-11T04:36:24.647Z,43.33
2023-02-11T04:38:51.715Z,47.03
2023-02-11T04:41:19.304Z,42.70
2023-02-11T04:43:46.529Z,43.87
2023-02-11T04:46:13.865Z,45.77
2023-02-11T04:48:41.613Z,47.07
2023-02-11T04:51:08.945Z,40.97
2023-02-11T04:53:36.113Z,45.23
2023-02-11T04:56:03.222Z,47.07
2023-02-11T04:58:30.546Z,40.67
2023-02-11T05:01:11.983Z,54.43
2023-02-11T05:03:39.638Z,51.43
2023-02-11T05:06:07.593Z,42.83
2023-02-11T05:08:35.114Z,46.23
2023-02-11T05:11:02.619Z,50.53
2023-02-11T05:13:30.091Z,54.93
2023-02-11T05:15:57.581Z,52.77
2023-02-11T05:18:24.852Z,38.93
2023-02-11T05:20:52.383Z,44.60
2023-02-11T05:23:20.521Z,40.70
2023-02-11T05:25:48.501Z,48.47
2023-02-11T05:28:16.131Z,51.23
2023-02-11T05:30:43.662Z,43.47
2023-02-11T05:33:11.114Z,55.77
2023-02-11T05:35:38.622Z,48.70
2023-02-11T05:38:06.324Z,53.50
2023-02-11T05:40:33.782Z,49.17
2023-02-11T05:43:01.230Z,54.50
2023-02-11T05:45:28.726Z,49.83
2023-02-11T05:47:56.519Z,55.13
2023-02-11T05:50:25.860Z,51.03
2023-02-11T05:52:53.087Z,56.83
2023-02-11T05:55:20.623Z,56.73
2023-02-11T05:57:47.850Z,62.73
2023-02-11T06:00:15.963Z,55.23
2023-02-11T06:02:43.329Z,57.17
2023-02-11T06:05:11.110Z,61.40
2023-02-11T06:07:38.403Z,55.73
2023-02-11T06:10:06.194Z,56.97
2023-02-11T06:12:33.913Z,57.70
2023-02-11T06:15:01.308Z,56.13
2023-02-11T06:17:33.228Z,53.17
2023-02-11T06:20:01.149Z,51.20
2023-02-11T06:22:29.382Z,53.13
2023-02-11T06:25:02.092Z,55.50
2023-02-11T06:27:30.955Z,50.13
2023-02-11T06:29:58.303Z,48.33
2023-02-11T06:35:14.952Z,49.50
2023-02-11T06:37:42.734Z,52.97
2023-02-11T06:40:11.447Z,58.37
2023-02-11T06:42:39.756Z,63.37
2023-02-11T06:45:09.753Z,59.73
2023-02-11T06:47:40.648Z,60.23
2023-02-11T06:50:09.024Z,51.43
2023-02-11T06:52:37.927Z,53.37
2023-02-11T06:55:05.618Z,56.63
2023-02-11T06:57:36.131Z,49.13
2023-02-11T07:00:05.582Z,54.83
2023-02-11T07:02:33.379Z,59.03
2023-02-11T07:05:00.874Z,53.03
2023-02-11T07:07:28.090Z,52.00
2023-02-11T07:09:55.459Z,54.53
2023-02-11T07:12:23.317Z,50.07
2023-02-11T07:14:50.667Z,50.40
2023-02-11T07:17:18.064Z,52.03
2023-02-11T07:19:45.385Z,52.13
2023-02-11T07:22:13.025Z,59.57
2023-02-11T07:24:40.426Z,49.13
2023-02-11T07:27:07.693Z,47.83
2023-02-11T07:29:35.471Z,50.37
2023-02-11T07:32:02.940Z,53.10
2023-02-11T07:34:30.867Z,50.83
2023-02-11T07:36:58.442Z,59.67
2023-02-11T07:39:28.002Z,51.80
2023-02-11T07:41:55.566Z,54.10
2023-02-11T07:44:23.047Z,45.63
2023-02-11T07:46:50.218Z,48.80
2023-02-11T07:49:17.520Z,51.90
2023-02-11T07:51:45.120Z,47.47
2023-02-11T07:54:12.625Z,54.37
2023-02-11T07:56:40.020Z,53.33
2023-02-11T07:59:07.504Z,51.43
2023-02-11T08:01:35.000Z,46.40
2023-02-11T08:04:02.688Z,56.13
2023-02-11T08:06:31.885Z,51.63
2023-02-11T08:09:03.257Z,53.17
2023-02-11T08:11:30.904Z,52.43
2023-02-11T08:13:58.562Z,51.13
2023-02-11T08:16:30.396Z,48.67
2023-02-11T08:18:59.289Z,60.63
2023-02-11T08:21:26.741Z,63.60
2023-02-11T08:23:54.318Z,47.07
2023-02-11T08:26:26.556Z,69.00
2023-02-11T08:28:54.677Z,56.43
2023-02-11T08:31:24.138Z,66.80
2023-02-11T08:33:52.006Z,48.73
2023-02-11T08:36:23.625Z,53.40
2023-02-11T08:38:51.307Z,65.33
2023-02-11T08:41:19.009Z,90.40
2023-02-11T08:43:46.380Z,104.50
2023-02-11T08:46:15.788Z,62.13
2023-02-11T08:48:43.763Z,87.20
2023-02-11T08:51:13.663Z,78.17
2023-02-11T08:53:41.277Z,78.77
2023-02-11T08:56:12.173Z,52.87
2023-02-11T08:58:40.895Z,44.67
2023-02-11T09:01:16.718Z,52.03
2023-02-11T09:03:44.195Z,52.13
2023-02-11T09:06:11.745Z,54.83
2023-02-11T09:08:39.867Z,55.40
2023-02-11T09:11:07.402Z,49.57
2023-02-11T09:13:34.720Z,46.63
2023-02-11T09:16:02.287Z,62.27
2023-02-11T09:18:29.901Z,77.17
2023-02-11T09:21:05.158Z,65.47
2023-02-11T09:23:34.563Z,67.00
2023-02-11T09:26:09.226Z,113.13
2023-02-11T09:28:37.360Z,74.57
2023-02-11T09:31:09.088Z,136.10
2023-02-11T09:33:36.429Z,63.93
2023-02-11T09:36:05.777Z,82.77
2023-02-11T09:38:33.923Z,90.97
2023-02-11T09:41:04.367Z,76.63
2023-02-11T09:43:39.832Z,69.47
2023-02-11T09:46:07.138Z,49.83
2023-02-11T09:48:40.429Z,52.67
2023-02-11T09:51:08.313Z,46.53
2023-02-11T09:53:37.885Z,46.90
2023-02-11T09:56:14.852Z,49.10
2023-02-11T09:58:43.555Z,54.23
2023-02-11T10:01:26.154Z,47.03
2023-02-11T10:03:56.413Z,51.40
2023-02-11T10:06:52.405Z,56.27
2023-02-11T10:09:26.142Z,51.77
2023-02-11T10:12:15.374Z,51.83
2023-02-11T10:14:48.488Z,56.47
2023-02-11T10:17:16.199Z,57.03
2023-02-11T10:19:49.388Z,46.77
2023-02-11T10:22:43.759Z,50.93
2023-02-11T10:25:29.365Z,64.40
2023-02-11T10:27:59.395Z,68.77
2023-02-11T10:30:38.855Z,98.20
2023-02-11T10:33:25.004Z,49.87
2023-02-11T10:35:53.028Z,91.70
2023-02-11T10:38:20.862Z,54.57
2023-02-11T10:40:48.501Z,51.30
2023-02-11T10:43:26.085Z,83.33
2023-02-11T10:45:54.331Z,77.87
2023-02-11T10:48:40.241Z,121.33
2023-02-11T10:51:28.729Z,73.57
2023-02-11T10:54:05.623Z,77.67
2023-02-11T10:56:37.955Z,55.37
2023-02-11T10:59:24.139Z,58.80
2023-02-11T11:02:00.922Z,52.20
2023-02-11T11:04:35.728Z,49.90
2023-02-11T11:07:29.156Z,54.50
2023-02-11T11:10:03.099Z,59.33
2023-02-11T11:12:36.659Z,55.00
2023-02-11T11:15:22.121Z,48.03
2023-02-11T11:17:50.653Z,42.20
2023-02-11T11:20:22.996Z,37.73
2023-02-11T11:22:55.817Z,40.10
2023-02-11T11:25:27.987Z,40.33
2023-02-11T11:27:57.866Z,43.07
2023-02-11T11:30:40.176Z,39.40
2023-02-11T11:33:18.881Z,44.33
2023-02-11T11:35:53.726Z,42.33
2023-02-11T11:38:21.427Z,41.80
2023-02-11T11:40:49.031Z,42.60
2023-02-11T11:43:23.115Z,38.80
2023-02-11T11:45:58.599Z,36.20
2023-02-11T11:48:28.046Z,38.80
2023-02-11T11:51:03.066Z,43.17
2023-02-11T11:53:45.914Z,38.40
2023-02-11T11:56:26.814Z,34.93
2023-02-11T11:58:54.670Z,47.23
2023-02-11T12:01:43.797Z,60.43
2023-02-11T12:04:45.712Z,49.73
2023-02-11T12:07:26.044Z,36.10
2023-02-11T12:10:15.523Z,55.50
2023-02-11T12:13:14.813Z,50.83
2023-02-11T12:15:48.003Z,176.50
2023-02-11T12:18:33.854Z,53.00
2023-02-11T12:21:13.486Z,34.23
2023-02-11T12:24:05.045Z,69.60
2023-02-11T12:26:45.436Z,51.37
2023-02-11T12:29:24.951Z,41.40
2023-02-11T12:32:18.829Z,50.67
2023-02-11T12:35:07.998Z,41.07
2023-02-11T12:37:39.080Z,34.00
2023-02-11T12:40:30.101Z,36.13
2023-02-11T12:43:18.618Z,29.17
2023-02-11T12:46:03.076Z,38.93
2023-02-11T12:49:18.461Z,35.80
2023-02-11T12:52:11.332Z,29.13
2023-02-11T12:55:16.568Z,24.27
2023-02-11T12:57:44.152Z,30.08
2023-02-11T13:00:19.610Z,35.83
2023-02-11T13:03:07.500Z,25.53
2023-02-11T13:05:43.638Z,29.83
2023-02-11T13:08:40.576Z,33.27
2023-02-11T13:11:14.346Z,40.53
2023-02-11T13:14:02.698Z,29.83
2023-02-11T13:16:39.647Z,33.10
2023-02-11T13:19:21.701Z,34.13
2023-02-11T13:21:56.418Z,33.30
2023-02-11T13:24:44.707Z,24.97
2023-02-11T13:27:37.364Z,34.50
2023-02-11T13:30:27.694Z,34.03
2023-02-11T13:32:56.097Z,28.50
2023-02-11T13:35:37.237Z,43.57
2023-02-11T13:38:34.082Z,31.03
2023-02-11T13:41:21.614Z,29.30
2023-02-11T13:43:59.079Z,25.13
2023-02-11T13:46:26.640Z,34.47
2023-02-11T13:48:54.051Z,28.97
2023-02-11T13:51:36.779Z,28.93
2023-02-11T13:54:04.789Z,37.97
2023-02-11T13:56:37.260Z,28.73
2023-02-11T13:59:34.060Z,26.93
2023-02-11T14:02:21.557Z,37.80
2023-02-11T14:05:25.501Z,40.80
2023-02-11T14:08:29.338Z,26.57
2023-02-11T14:11:13.368Z,27.77
2023-02-11T14:13:49.904Z,32.07
2023-02-11T14:16:36.914Z,42.23
2023-02-11T14:19:06.851Z,28.53
2023-02-11T14:21:45.982Z,30.60
2023-02-11T14:24:13.652Z,29.93
2023-02-11T14:27:02.247Z,39.30
2023-02-11T14:29:52.870Z,29.43
2023-02-11T14:32:46.055Z,29.97
2023-02-11T14:35:33.435Z,29.77
2023-02-11T14:38:29.029Z,28.73
2023-02-11T14:41:05.627Z,26.97
2023-02-11T14:43:40.358Z,30.57
2023-02-11T14:46:07.873Z,29.67
2023-02-11T14:48:37.910Z,28.27
2023-02-11T14:51:18.518Z,30.43
2023-02-11T14:53:48.456Z,34.00
2023-02-11T14:56:22.164Z,35.20
2023-02-11T14:58:52.211Z,32.60
2023-02-11T15:01:38.581Z,32.33
2023-02-11T15:04:06.894Z,29.40
2023-02-11T15:06:35.137Z,31.73
2023-02-11T15:09:18.303Z,32.93
2023-02-11T15:11:49.145Z,27.37
2023-02-11T15:14:26.804Z,24.67
2023-02-11T15:16:55.579Z,29.17
2023-02-11T15:19:39.754Z,33.20
2023-02-11T15:22:19.032Z,30.27
2023-02-11T15:24:47.108Z,29.17
2023-02-11T15:27:16.440Z,28.30
2023-02-11T15:29:49.934Z,33.43
2023-02-11T15:32:25.047Z,32.77
2023-02-11T15:34:54.170Z,31.57
2023-02-11T15:37:30.086Z,27.80
2023-02-11T15:40:12.411Z,39.73
2023-02-11T15:42:52.140Z,32.23
2023-02-11T15:45:21.125Z,34.70
2023-02-11T15:47:56.881Z,32.67
2023-02-11T15:50:29.761Z,40.43
2023-02-11T15:52:58.833Z,31.57
2023-02-11T15:55:29.156Z,30.53
2023-02-11T15:57:58.371Z,32.70
2023-02-11T16:00:32.962Z,33.47
2023-02-11T16:03:00.332Z,31.73
2023-02-11T16:05:29.344Z,34.27
2023-02-11T16:07:57.608Z,30.20
2023-02-11T16:10:27.423Z,30.23
2023-02-11T16:12:59.582Z,30.87
2023-02-11T16:15:33.924Z,28.83
2023-02-11T16:18:16.126Z,28.40
2023-02-11T16:20:48.229Z,28.77
2023-02-11T16:23:20.873Z,29.77
2023-02-11T16:25:48.364Z,30.67
2023-02-11T16:28:16.327Z,31.27
2023-02-11T16:30:43.857Z,27.30
2023-02-11T16:33:11.927Z,28.40
2023-02-11T16:35:39.415Z,30.17
2023-02-11T16:38:06.653Z,28.03
2023-02-11T16:40:33.940Z,32.50
2023-02-11T16:43:01.463Z,31.80
2023-02-11T16:45:28.684Z,31.33
2023-02-11T16:47:56.187Z,29.57
2023-02-11T16:50:25.220Z,28.47
2023-02-11T16:52:55.199Z,30.47
2023-02-11T16:55:22.625Z,33.50
2023-02-11T16:57:50.164Z,33.03
2023-02-11T17:00:17.873Z,29.53
2023-02-11T17:02:45.420Z,31.80
2023-02-11T17:05:21.307Z,33.57
2023-02-11T17:07:49.244Z,30.63
2023-02-11T17:10:21.643Z,31.93
2023-02-11T17:12:50.394Z,31.00
2023-02-11T17:15:17.709Z,31.80
2023-02-11T17:17:46.425Z,34.30
2023-02-11T17:20:14.498Z,35.07
2023-02-11T17:22:42.218Z,31.80
2023-02-11T17:25:09.937Z,36.07
2023-02-11T17:27:37.310Z,37.60
2023-02-11T17:30:05.823Z,41.00
2023-02-11T17:32:32.957Z,43.37
2023-02-11T17:35:00.274Z,35.83
2023-02-11T17:37:27.478Z,34.93
2023-02-11T17:39:55.508Z,39.80
2023-02-11T17:42:22.757Z,36.97
2023-02-11T17:44:50.014Z,33.57
2023-02-11T17:47:17.539Z,38.67
2023-02-11T17:49:44.714Z,39.23
2023-02-11T17:52:12.362Z,39.70
2023-02-11T17:54:40.420Z,37.70
2023-02-11T17:57:08.140Z,36.97
2023-02-11T17:59:35.965Z,39.03
2023-02-11T18:02:04.107Z,41.90
2023-02-11T18:04:32.247Z,43.00
2023-02-11T18:06:59.962Z,33.50
2023-02-11T18:09:27.608Z,35.60
2023-02-11T18:11:55.289Z,34.87
2023-02-11T18:14:23.056Z,36.53
2023-02-11T18:16:52.340Z,38.17
2023-02-11T18:19:20.089Z,41.47
2023-02-11T18:21:50.515Z,42.40
2023-02-11T18:24:18.031Z,40.40
2023-02-11T18:26:45.210Z,38.43
2023-02-11T18:29:12.450Z,42.30
2023-02-11T18:31:40.385Z,36.03
2023-02-11T18:34:08.473Z,36.83
2023-02-11T18:36:36.548Z,36.50
2023-02-11T18:39:05.198Z,45.63
2023-02-11T18:41:32.478Z,39.00
2023-02-11T18:44:03.381Z,36.43
2023-02-11T18:46:31.915Z,37.37
2023-02-11T18:48:59.440Z,39.23
2023-02-11T18:51:26.993Z,34.67
2023-02-11T18:53:54.974Z,38.80
2023-02-11T18:56:23.607Z,39.63
2023-02-11T18:58:52.171Z,37.90
2023-02-11T19:01:21.559Z,38.27
2023-02-11T19:03:48.859Z,35.33
2023-02-11T19:06:27.985Z,38.27
2023-02-11T19:08:59.415Z,33.63
2023-02-11T19:11:46.696Z,40.53
2023-02-11T19:14:27.993Z,34.53
2023-02-11T19:16:56.657Z,36.87
2023-02-11T19:19:28.377Z,36.03
2023-02-11T19:21:55.688Z,36.53
2023-02-11T19:24:23.269Z,35.20
2023-02-11T19:26:51.492Z,39.40
2023-02-11T19:29:18.985Z,39.10
2023-02-11T19:31:47.118Z,39.50
2023-02-11T19:34:15.691Z,35.70
2023-02-11T19:36:43.294Z,32.20
2023-02-11T19:39:10.517Z,35.63
2023-02-11T19:41:38.063Z,39.97
2023-02-11T19:44:06.222Z,40.67
2023-02-11T19:46:36.489Z,44.07
2023-02-11T19:49:04.562Z,43.47
2023-02-11T19:51:33.901Z,44.87
2023-02-11T19:54:01.312Z,40.23
2023-02-11T19:56:28.940Z,41.17
2023-02-11T19:58:56.736Z,38.03
2023-02-11T20:01:24.833Z,35.10
2023-02-11T20:03:53.191Z,40.23
2023-02-11T20:06:23.766Z,35.20
2023-02-11T20:09:07.683Z,37.17
2023-02-11T20:11:36.082Z,34.07
2023-02-11T20:14:03.936Z,33.97
2023-02-11T20:16:46.905Z,36.57
2023-02-11T20:19:20.906Z,39.33
2023-02-11T20:21:49.445Z,39.17
2023-02-11T20:24:17.932Z,33.50
2023-02-11T20:26:47.023Z,35.00
2023-02-11T20:29:15.798Z,36.63
2023-02-11T20:31:43.406Z,40.60
2023-02-11T20:34:11.213Z,35.60
2023-02-11T20:36:40.727Z,36.57
2023-02-11T20:39:08.569Z,35.97
2023-02-11T20:41:36.814Z,36.73
2023-02-11T20:44:05.984Z,36.23
2023-02-11T20:46:33.888Z,38.80
2023-02-11T20:49:01.898Z,37.50
2023-02-11T20:51:31.102Z,35.47
2023-02-11T20:53:58.297Z,39.07
2023-02-11T20:56:35.959Z,33.40
2023-02-11T20:59:04.421Z,39.63
2023-02-11T21:01:43.856Z,36.97
2023-02-11T21:04:18.820Z,37.77
2023-02-11T21:06:47.783Z,36.23
2023-02-11T21:09:17.711Z,38.10
2023-02-11T21:11:45.368Z,39.80
2023-02-11T21:14:13.112Z,40.27
2023-02-11T21:16:40.709Z,39.73
2023-02-11T21:19:08.314Z,40.07
2023-02-11T21:21:36.809Z,39.57
2023-02-11T21:24:05.672Z,38.93
2023-02-11T21:26:33.280Z,41.83
2023-02-11T21:29:00.445Z,41.37
2023-02-11T21:31:30.023Z,40.57
2023-02-11T21:33:59.690Z,42.17
2023-02-11T21:36:28.028Z,44.10
2023-02-11T21:38:55.265Z,41.30
2023-02-11T21:41:22.899Z,42.63
2023-02-11T21:43:50.583Z,37.27
2023-02-11T21:46:18.038Z,41.97
2023-02-11T21:48:45.612Z,38.20
2023-02-11T21:51:21.123Z,42.73
2023-02-11T21:53:48.541Z,40.93
2023-02-11T21:56:17.431Z,42.87
2023-02-11T21:58:45.153Z,41.63
2023-02-11T22:01:14.341Z,38.87
2023-02-11T22:03:41.813Z,38.67
2023-02-11T22:06:14.039Z,40.13
2023-02-11T22:08:41.603Z,40.97
2023-02-11T22:11:10.712Z,42.30
2023-02-11T22:13:38.296Z,45.77
2023-02-11T22:16:07.290Z,49.37
2023-02-11T22:18:34.699Z,43.70
2023-02-11T22:21:12.745Z,45.80
2023-02-11T22:23:40.303Z,45.57
2023-02-11T22:26:12.744Z,42.47
2023-02-11T22:28:41.145Z,45.13
2023-02-11T22:31:12.293Z,43.37
2023-02-11T22:33:39.635Z,43.87
2023-02-11T22:36:09.438Z,47.03
2023-02-11T22:38:36.660Z,47.50
2023-02-11T22:41:08.379Z,51.63
2023-02-11T22:43:35.894Z,50.33
2023-02-11T22:46:04.226Z,52.20
2023-02-11T22:48:31.755Z,44.37
2023-02-11T22:51:07.889Z,54.13
2023-02-11T22:53:35.079Z,48.87
2023-02-11T22:56:04.646Z,47.97
2023-02-11T22:58:32.122Z,49.27
2023-02-11T23:00:59.478Z,50.63
2023-02-11T23:03:26.816Z,52.67
2023-02-11T23:05:54.775Z,52.50
2023-02-11T23:08:22.378Z,51.37
2023-02-11T23:10:49.740Z,53.03
2023-02-11T23:13:17.221Z,53.47
2023-02-11T23:15:45.161Z,54.17
2023-02-11T23:18:12.549Z,50.57
2023-02-11T23:20:41.566Z,50.90
2023-02-11T23:23:08.999Z,52.27
2023-02-11T23:25:36.254Z,52.60
2023-02-11T23:28:04.233Z,56.60
2023-02-11T23:30:31.549Z,47.03
2023-02-11T23:32:58.977Z,49.90
2023-02-11T23:35:26.341Z,48.27
2023-02-11T23:37:53.632Z,51.47
2023-02-11T23:40:21.425Z,51.00
2023-02-11T23:42:49.311Z,49.43
2023-02-11T23:45:16.603Z,50.23
2023-02-11T23:47:44.142Z,50.67
2023-02-11T23:50:11.848Z,52.67
2023-02-11T23:52:39.114Z,51.70
2023-02-11T23:55:06.637Z,50.70
2023-02-11T23:57:34.116Z,49.77
